Time;durP1;ratioP1;P1;durP2;ratioP2;P2;SDS_P1;SDS_P2;PMS_P1;PMS_P2;Temp;Humidity;BMP_temperature;BMP_pressure;BME280_temperature;BME280_humidity;BME280_pressure;Samples;Min_cycle;Max_cycle;Signal;HPM_P1;HPM_P2
2023/05/21 00:01:14;;;;;;;1.80;1.60;;;;;;;21.91;43.23;100752.63;4551164;28;20445;-62
2023/05/21 00:03:27;;;;;;;1.58;1.48;;;;;;;21.84;43.00;100738.09;4553219;28;20713;-62
2023/05/21 00:05:42;;;;;;;1.77;1.67;;;;;;;21.90;43.06;100745.22;4550543;28;20753;-62
2023/05/21 00:07:53;;;;;;;1.75;1.63;;;;;;;21.90;43.11;100742.34;4552204;27;20079;-62
2023/05/21 00:10:04;;;;;;;1.45;1.35;;;;;;;21.88;42.97;100732.44;4551873;28;20634;-62
2023/05/21 00:12:15;;;;;;;1.92;1.73;;;;;;;21.89;43.48;100739.84;4552360;28;20024;-62
2023/05/21 00:14:25;;;;;;;1.90;1.75;;;;;;;21.89;43.03;100740.69;4552155;28;20037;-62
2023/05/21 00:16:36;;;;;;;1.75;1.60;;;;;;;21.89;43.13;100740.69;4553221;28;20530;-62
2023/05/21 00:18:48;;;;;;;1.60;1.42;;;;;;;21.90;43.42;100739.47;4551351;28;20702;-62
2023/05/21 00:20:59;;;;;;;2.20;1.52;;;;;;;21.87;43.07;100734.47;4551010;28;20838;-62
2023/05/21 00:23:10;;;;;;;1.70;1.60;;;;;;;21.89;43.04;100736.97;4539994;28;20107;-62
2023/05/21 00:25:20;;;;;;;1.70;1.60;;;;;;;21.89;43.16;100737.81;4552543;28;20031;-63
2023/05/21 00:27:31;;;;;;;2.00;1.80;;;;;;;21.87;43.12;100728.72;4533905;28;20131;-63
2023/05/21 00:29:42;;;;;;;2.05;1.70;;;;;;;21.88;42.96;100727.50;4550206;28;20035;-63
2023/05/21 00:31:53;;;;;;;1.73;1.50;;;;;;;21.86;43.09;100721.34;4556436;28;20098;-63
2023/05/21 00:34:03;;;;;;;1.63;1.52;;;;;;;21.85;42.85;100719.66;4551314;28;20055;-63
2023/05/21 00:36:14;;;;;;;1.98;1.77;;;;;;;21.87;42.89;100719.28;4551527;28;20041;-62
2023/05/21 00:38:26;;;;;;;1.50;1.40;;;;;;;21.87;43.21;100723.00;4555455;28;20041;-63
2023/05/21 00:40:40;;;;;;;1.63;1.52;;;;;;;21.87;42.84;100711.50;4555014;28;21068;-64
2023/05/21 00:42:50;;;;;;;1.70;1.60;;;;;;;21.88;42.81;100715.22;4561128;28;20036;-63
2023/05/21 00:45:02;;;;;;;1.80;1.70;;;;;;;21.85;43.14;100710.22;4554521;28;20044;-63
2023/05/21 00:47:13;;;;;;;1.60;1.50;;;;;;;21.87;43.39;100710.66;4541990;28;20103;-63
2023/05/21 00:49:24;;;;;;;1.70;1.60;;;;;;;21.85;43.21;100704.47;4557771;28;21136;-63
2023/05/21 00:51:35;;;;;;;1.75;1.60;;;;;;;21.86;42.98;100706.13;4560158;28;20131;-63
2023/05/21 00:53:50;;;;;;;2.00;1.70;;;;;;;21.81;43.14;100700.66;4554432;28;20488;-63
2023/05/21 00:56:01;;;;;;;1.90;1.70;;;;;;;21.86;42.74;100700.38;4554643;28;20041;-63
2023/05/21 00:58:13;;;;;;;1.60;1.50;;;;;;;21.82;43.22;100694.53;4554646;28;20036;-63
2023/05/21 01:00:25;;;;;;;1.73;1.63;;;;;;;21.85;42.82;100695.84;4541208;28;20025;-63
2023/05/21 01:02:36;;;;;;;1.70;1.60;;;;;;;21.85;43.18;100699.53;4554717;28;20595;-63
2023/05/21 01:04:47;;;;;;;1.90;1.73;;;;;;;21.82;42.82;100680.16;4555050;28;20038;-63
2023/05/21 01:06:57;;;;;;;1.80;1.70;;;;;;;21.85;43.20;100693.78;4542769;28;20501;-63
2023/05/21 01:09:08;;;;;;;2.00;1.80;;;;;;;21.83;43.25;100689.63;4553646;28;20143;-63
2023/05/21 01:11:20;;;;;;;1.83;1.63;;;;;;;21.80;43.12;100688.31;4555386;28;20052;-63
2023/05/21 01:13:35;;;;;;;2.45;1.83;;;;;;;21.84;42.52;100689.25;4554269;28;20027;-63
2023/05/21 01:15:46;;;;;;;2.50;2.30;;;;;;;21.81;42.76;100684.25;4553802;28;20091;-63
2023/05/21 01:17:57;;;;;;;2.10;1.90;;;;;;;21.76;42.56;100675.91;4552529;28;20043;-63
2023/05/21 01:20:10;;;;;;;1.90;1.70;;;;;;;21.83;42.82;100681.00;4554191;28;20040;-63
2023/05/21 01:22:23;;;;;;;2.13;1.92;;;;;;;21.83;42.82;100693.34;4552364;28;20904;-63
2023/05/21 01:24:34;;;;;;;1.83;1.67;;;;;;;21.81;42.56;100687.13;4553633;28;20036;-63
2023/05/21 01:26:45;;;;;;;1.98;1.77;;;;;;;21.82;42.53;100676.44;4553828;28;20037;-63
2023/05/21 01:28:55;;;;;;;1.73;1.60;;;;;;;21.83;42.63;100686.75;4553547;28;20449;-63
2023/05/21 01:31:27;;;;;;;2.05;1.80;;;;;;;21.81;42.77;100684.25;4554595;28;20043;-63
2023/05/21 01:33:47;;;;;;;2.38;1.90;;;;;;;21.83;42.23;100683.88;4554748;27;20036;-63
2023/05/21 01:36:14;;;;;;;1.88;1.75;;;;;;;21.82;42.25;100680.16;4554352;28;20095;-63
2023/05/21 01:38:31;;;;;;;2.10;1.70;;;;;;;21.82;42.35;100685.91;4552031;28;20040;-63
2023/05/21 01:40:57;;;;;;;2.20;1.77;;;;;;;21.83;42.71;100686.75;4553616;28;20780;-62
2023/05/21 01:43:08;;;;;;;2.03;1.83;;;;;;;21.81;42.57;100687.13;4541609;28;20066;-63
2023/05/21 01:45:20;;;;;;;1.70;1.60;;;;;;;21.81;42.35;100690.00;4553109;28;20615;-62
2023/05/21 01:47:31;;;;;;;1.65;1.55;;;;;;;21.80;42.27;100688.31;4553433;27;20039;-63
2023/05/21 01:49:42;;;;;;;2.00;1.80;;;;;;;21.80;41.96;100681.75;4552442;28;20611;-62
2023/05/21 01:51:53;;;;;;;1.80;1.70;;;;;;;21.79;42.21;100686.66;4553538;28;20075;-63
2023/05/21 01:54:03;;;;;;;1.80;1.70;;;;;;;21.80;41.86;100688.31;4554866;28;20210;-63
2023/05/21 01:56:14;;;;;;;1.60;1.50;;;;;;;21.79;41.87;100689.53;4552039;28;20099;-63
2023/05/21 01:58:25;;;;;;;1.80;1.70;;;;;;;21.80;41.95;100688.31;4554001;28;20550;-63
2023/05/21 02:00:36;;;;;;;2.10;1.90;;;;;;;21.79;42.21;100692.41;4569534;27;20031;-63
2023/05/21 02:02:47;;;;;;;1.98;1.77;;;;;;;21.79;41.88;100686.66;4553088;28;20547;-63
2023/05/21 02:04:57;;;;;;;1.88;1.77;;;;;;;21.78;41.97;100685.00;4554893;28;20091;-63
2023/05/21 02:07:09;;;;;;;1.77;1.67;;;;;;;21.79;41.65;100682.94;4554854;28;20111;-63
2023/05/21 02:09:20;;;;;;;2.08;1.80;;;;;;;21.78;42.13;100673.50;4553450;28;20037;-63
2023/05/21 02:11:30;;;;;;;2.05;1.88;;;;;;;21.79;42.22;100680.06;4553122;28;20036;-63
2023/05/21 02:13:41;;;;;;;1.90;1.77;;;;;;;21.78;42.20;100673.50;4553925;28;20057;-62
2023/05/21 02:15:53;;;;;;;2.47;1.80;;;;;;;21.79;42.22;100682.94;4553682;28;20616;-63
2023/05/21 02:18:04;;;;;;;1.80;1.70;;;;;;;21.78;42.04;100682.13;4552796;28;20507;-63
2023/05/21 02:20:14;;;;;;;1.85;1.75;;;;;;;21.73;41.86;100662.28;4554339;28;20110;-63
2023/05/21 02:22:25;;;;;;;1.98;1.70;;;;;;;21.79;41.80;100666.56;4552193;28;20036;-63
2023/05/21 02:24:35;;;;;;;1.80;1.70;;;;;;;21.76;41.88;100663.59;4554052;28;20607;-63
2023/05/21 02:26:47;;;;;;;2.40;1.80;;;;;;;21.78;41.77;100667.78;4554532;28;20040;-63
2023/05/21 02:28:57;;;;;;;1.90;1.70;;;;;;;21.73;41.67;100662.28;4540305;28;20033;-63
2023/05/21 02:31:08;;;;;;;2.20;2.00;;;;;;;21.76;41.30;100664.44;4554262;28;20268;-63
2023/05/21 02:33:19;;;;;;;2.90;2.53;;;;;;;21.76;41.30;100670.19;4555998;28;20043;-63
2023/05/21 02:35:31;;;;;;;3.00;2.63;;;;;;;21.76;41.34;100660.72;4551842;28;20649;-63
2023/05/21 02:37:42;;;;;;;2.75;2.00;;;;;;;21.78;41.41;100666.94;4551713;28;20566;-63
2023/05/21 02:39:53;;;;;;;1.88;1.77;;;;;;;21.70;41.30;100645.78;4554689;28;20095;-63
2023/05/21 02:42:04;;;;;;;1.80;1.70;;;;;;;21.74;41.64;100654.50;4554206;28;20143;-62
2023/05/21 02:44:14;;;;;;;1.80;1.70;;;;;;;21.77;41.17;100654.59;4554520;28;20059;-63
2023/05/21 02:46:24;;;;;;;2.15;1.83;;;;;;;21.74;41.21;100652.44;4553273;28;20139;-63
2023/05/21 02:48:36;;;;;;;2.00;1.90;;;;;;;21.76;41.36;100654.97;4557618;28;20321;-63
2023/05/21 02:50:48;;;;;;;2.00;1.80;;;;;;;21.76;41.17;100655.81;4541242;28;20062;-63
2023/05/21 02:52:58;;;;;;;1.77;1.67;;;;;;;21.63;41.59;100636.13;4553028;28;20459;-63
2023/05/21 02:55:09;;;;;;;1.73;1.60;;;;;;;21.76;41.34;100657.84;4553181;28;20074;-63
2023/05/21 02:57:19;;;;;;;1.98;1.77;;;;;;;21.76;41.32;100655.81;4552902;28;20052;-63
2023/05/21 02:59:30;;;;;;;2.10;1.92;;;;;;;21.71;41.37;100647.44;4553730;28;20101;-63
2023/05/21 03:01:40;;;;;;;2.10;1.90;;;;;;;21.74;41.15;100649.56;4553011;28;20024;-63
2023/05/21 03:03:51;;;;;;;1.80;1.63;;;;;;;21.73;41.31;100653.66;4553611;28;20033;-63
2023/05/21 03:06:01;;;;;;;1.70;1.60;;;;;;;21.71;41.08;100644.56;4553133;28;20043;-63
2023/05/21 03:08:11;;;;;;;1.55;1.45;;;;;;;21.74;41.22;100648.75;4553626;28;20021;-63
2023/05/21 03:10:23;;;;;;;2.10;1.90;;;;;;;21.74;41.55;100654.50;4552228;28;20040;-63
2023/05/21 03:12:33;;;;;;;2.00;1.90;;;;;;;21.71;41.52;100649.47;4548913;28;20496;-63
2023/05/21 03:14:45;;;;;;;2.10;1.80;;;;;;;21.73;41.38;100662.28;4552321;28;20136;-63
2023/05/21 03:16:55;;;;;;;1.80;1.70;;;;;;;21.74;41.47;100658.19;4550196;28;20044;-63
2023/05/21 03:19:07;;;;;;;2.30;2.10;;;;;;;21.71;41.79;100655.22;4553972;28;20060;-63
2023/05/21 03:21:21;;;;;;;2.13;1.92;;;;;;;21.74;41.79;100654.50;4552037;28;20290;-63
2023/05/21 03:23:31;;;;;;;2.33;2.13;;;;;;;21.72;41.63;100651.16;4550342;28;20036;-62
2023/05/21 03:25:44;;;;;;;2.22;2.03;;;;;;;21.66;41.91;100636.22;4540300;28;20029;-63
2023/05/21 03:27:55;;;;;;;2.20;2.00;;;;;;;21.72;41.84;100640.47;4551634;28;20945;-63
2023/05/21 03:30:29;;;;;;;2.42;2.22;;;;;;;21.70;41.94;100631.41;4554991;27;20678;-63
2023/05/21 03:32:58;;;;;;;2.40;2.20;;;;;;;21.65;41.74;100628.84;4553123;28;20048;-63
2023/05/21 03:35:09;;;;;;;2.33;2.13;;;;;;;21.71;41.64;100638.81;4553289;28;20033;-63
2023/05/21 03:37:20;;;;;;;2.40;2.20;;;;;;;21.70;41.80;100634.28;4551977;28;20044;-63
2023/05/21 03:39:31;;;;;;;2.40;2.20;;;;;;;21.69;41.71;100631.78;4551380;28;20033;-63
2023/05/21 03:41:42;;;;;;;2.33;2.13;;;;;;;21.69;41.85;100641.22;4551684;28;20709;-63
2023/05/21 03:43:57;;;;;;;2.30;2.10;;;;;;;21.70;41.34;100645.78;4551564;28;20028;-63
2023/05/21 03:46:11;;;;;;;1.92;1.80;;;;;;;21.71;41.70;100641.69;4551418;28;20094;-63
2023/05/21 03:48:41;;;;;;;2.20;2.00;;;;;;;21.71;41.45;100647.44;4550180;28;20024;-63
2023/05/21 03:50:55;;;;;;;2.30;2.10;;;;;;;21.66;41.46;100638.28;4550928;28;20037;-63
2023/05/21 03:53:05;;;;;;;2.10;1.90;;;;;;;21.68;41.15;100636.69;4551675;28;20064;-63
2023/05/21 03:55:16;;;;;;;2.20;2.00;;;;;;;21.66;41.54;100641.97;4539232;28;20553;-63
2023/05/21 03:57:27;;;;;;;2.30;2.05;;;;;;;21.68;41.48;100642.44;4550801;28;20128;-63
2023/05/21 03:59:38;;;;;;;2.28;2.08;;;;;;;21.70;41.39;100642.91;4550311;28;20043;-62
2023/05/21 04:01:48;;;;;;;2.30;2.10;;;;;;;21.68;41.54;100645.31;4552789;27;20408;-63
2023/05/21 04:04:01;;;;;;;2.30;2.10;;;;;;;21.69;41.53;100641.22;4551883;28;20037;-62
2023/05/21 04:06:12;;;;;;;2.35;2.15;;;;;;;21.62;41.45;100641.06;4539827;28;20084;-63
2023/05/21 04:08:23;;;;;;;2.35;2.08;;;;;;;21.64;41.34;100644.41;4535314;28;20415;-62
2023/05/21 04:10:34;;;;;;;2.10;1.90;;;;;;;21.67;41.52;100642.81;4553119;28;20040;-63
2023/05/21 04:12:44;;;;;;;2.67;2.20;;;;;;;21.69;41.38;100657.66;4555867;28;20492;-63
2023/05/21 04:14:55;;;;;;;2.30;2.10;;;;;;;21.67;41.68;100657.19;4553058;28;20048;-63
2023/05/21 04:17:06;;;;;;;2.28;2.08;;;;;;;21.69;41.71;100660.53;4555225;28;20874;-62
2023/05/21 04:19:17;;;;;;;2.00;1.80;;;;;;;21.64;41.67;100652.19;4554430;28;20540;-63
2023/05/21 04:21:27;;;;;;;2.28;2.08;;;;;;;21.65;41.88;100657.56;4555443;28;20600;-62
2023/05/21 04:23:38;;;;;;;2.20;2.00;;;;;;;21.68;41.64;100674.03;4553989;28;20033;-62
2023/05/21 04:25:54;;;;;;;1.92;1.70;;;;;;;21.66;41.93;100661.28;4553061;28;20764;-62
2023/05/21 04:28:06;;;;;;;2.00;1.90;;;;;;;21.66;41.93;100664.16;4542149;28;20598;-63
2023/05/21 04:30:18;;;;;;;2.53;1.90;;;;;;;21.68;41.90;100673.19;4551535;28;20044;-62
2023/05/21 04:32:30;;;;;;;2.10;1.90;;;;;;;21.67;41.84;100672.38;4555360;28;20021;-62
2023/05/21 04:34:41;;;;;;;1.80;1.70;;;;;;;21.63;41.93;100662.84;4555175;28;20037;-63
2023/05/21 04:36:52;;;;;;;2.55;2.10;;;;;;;21.65;42.22;100668.22;4553637;28;20135;-63
2023/05/21 04:39:05;;;;;;;2.20;2.00;;;;;;;21.58;42.17;100654.50;4556458;28;20044;-63
2023/05/21 04:41:18;;;;;;;2.00;1.80;;;;;;;21.63;42.23;100664.88;4556362;28;20036;-62
2023/05/21 04:43:30;;;;;;;2.33;2.13;;;;;;;21.67;42.60;100674.41;4553834;28;20667;-63
2023/05/21 04:45:42;;;;;;;2.00;1.80;;;;;;;21.66;42.42;100675.63;4569787;27;20775;-62
2023/05/21 04:47:53;;;;;;;2.33;1.90;;;;;;;21.66;42.48;100672.75;4552645;28;20035;-62
2023/05/21 04:50:04;;;;;;;2.10;1.90;;;;;;;21.61;42.81;100656.63;4555743;28;20452;-63
2023/05/21 04:52:15;;;;;;;2.92;2.10;;;;;;;21.62;42.67;100666.94;4554357;28;20033;-62
2023/05/21 04:54:27;;;;;;;2.20;2.00;;;;;;;21.63;43.00;100657.09;4554644;28;20066;-62
2023/05/21 04:56:38;;;;;;;2.17;1.98;;;;;;;21.63;42.56;100665.72;4554157;28;20052;-62
2023/05/21 04:58:49;;;;;;;2.30;2.00;;;;;;;21.59;42.92;100664.81;4553089;28;20062;-63
2023/05/21 05:01:02;;;;;;;2.35;2.10;;;;;;;21.64;42.57;100667.41;4569675;27;20070;-62
2023/05/21 05:03:13;;;;;;;2.35;2.15;;;;;;;21.65;43.15;100673.94;4554683;28;20040;-62
2023/05/21 05:05:23;;;;;;;2.40;2.08;;;;;;;21.59;43.27;100664.81;4553121;28;20033;-63
2023/05/21 05:07:33;;;;;;;2.30;2.10;;;;;;;21.64;43.25;100667.41;4554350;28;20056;-63
2023/05/21 05:09:44;;;;;;;2.25;2.05;;;;;;;21.63;43.66;100662.00;4537789;28;20041;-63
2023/05/21 05:11:54;;;;;;;2.25;2.05;;;;;;;21.64;43.86;100663.69;4554231;28;20392;-63
2023/05/21 05:14:06;;;;;;;2.20;2.00;;;;;;;21.64;43.96;100660.81;4556893;28;20035;-63
2023/05/21 05:16:16;;;;;;;2.30;2.10;;;;;;;21.64;44.00;100655.91;4554560;28;20349;-63
2023/05/21 05:18:28;;;;;;;2.42;2.13;;;;;;;21.63;43.75;100650.50;4568512;27;20345;-63
2023/05/21 05:20:38;;;;;;;2.17;1.98;;;;;;;21.63;43.73;100654.22;4541409;28;20033;-63
2023/05/21 05:22:49;;;;;;;2.42;2.20;;;;;;;21.64;44.15;100647.28;4569081;27;20067;-63
2023/05/21 05:24:59;;;;;;;2.78;2.10;;;;;;;21.63;44.04;100642.72;4554039;28;20036;-62
2023/05/21 05:27:10;;;;;;;2.20;2.00;;;;;;;21.63;44.12;100642.72;4536957;28;20851;-63
2023/05/21 05:29:21;;;;;;;2.35;2.10;;;;;;;21.62;44.03;100641.06;4552571;28;20029;-62
2023/05/21 05:31:32;;;;;;;2.50;2.20;;;;;;;21.62;44.35;100643.94;4553346;28;20036;-63
2023/05/21 05:33:42;;;;;;;2.40;2.20;;;;;;;21.62;44.36;100641.06;4552996;28;20067;-63
2023/05/21 05:35:53;;;;;;;2.80;2.50;;;;;;;21.58;43.96;100640.13;4553530;28;20048;-63
2023/05/21 05:38:05;;;;;;;2.33;2.13;;;;;;;21.60;44.28;100643.47;4553395;28;20107;-63
2023/05/21 05:40:15;;;;;;;2.22;2.03;;;;;;;21.61;44.45;100641.44;4551199;28;20066;-63
2023/05/21 05:42:26;;;;;;;2.47;2.28;;;;;;;21.62;44.75;100640.22;4542995;28;20385;-64
2023/05/21 05:44:37;;;;;;;2.50;2.30;;;;;;;21.57;44.67;100629.88;4553788;28;20151;-63
2023/05/21 05:46:47;;;;;;;2.88;2.33;;;;;;;21.54;44.43;100629.78;4551491;28;20047;-63
2023/05/21 05:48:57;;;;;;;2.60;2.40;;;;;;;21.60;44.59;100639.75;4552407;28;20694;-63
2023/05/21 05:51:08;;;;;;;2.60;2.40;;;;;;;21.60;44.71;100643.47;4533628;28;20025;-63
2023/05/21 05:53:19;;;;;;;2.78;2.40;;;;;;;21.59;44.97;100641.81;4553119;28;20043;-63
2023/05/21 05:55:30;;;;;;;2.25;2.05;;;;;;;21.61;44.99;100647.19;4554305;28;20116;-63
2023/05/21 05:57:40;;;;;;;2.78;2.28;;;;;;;21.62;45.34;100646.81;4552961;28;20075;-64
2023/05/21 05:59:56;;;;;;;2.60;2.40;;;;;;;21.60;45.46;100636.88;4551129;28;20038;-63
2023/05/21 06:02:07;;;;;;;2.28;2.08;;;;;;;21.62;45.24;100635.34;4553063;28;20055;-63
2023/05/21 06:04:17;;;;;;;3.00;2.40;;;;;;;21.60;45.55;100642.63;4554076;28;20517;-64
2023/05/21 06:06:27;;;;;;;2.55;2.35;;;;;;;21.61;45.34;100638.56;4567705;27;20074;-63
2023/05/21 06:08:39;;;;;;;2.40;2.20;;;;;;;21.58;45.65;100628.66;4553080;28;20039;-66
2023/05/21 06:10:49;;;;;;;2.10;1.90;;;;;;;21.58;45.49;100628.66;4554404;27;20056;-64
2023/05/21 06:13:00;;;;;;;2.35;2.15;;;;;;;21.58;45.68;100628.66;4553578;28;20115;-63
2023/05/21 06:15:13;;;;;;;1.20;1.10;;;;;;;21.55;47.25;100626.53;4556976;28;20040;-63
2023/05/21 06:17:24;;;;;;;1.48;1.38;;;;;;;21.61;47.72;100632.84;4534343;28;20126;-63
2023/05/21 06:19:35;;;;;;;1.30;1.20;;;;;;;21.56;47.46;100625.34;4553508;28;20582;-63
2023/05/21 06:21:46;;;;;;;1.42;1.33;;;;;;;21.57;47.76;100629.03;4554238;28;20052;-63
2023/05/21 06:23:56;;;;;;;1.60;1.50;;;;;;;21.59;47.24;100630.34;4552715;28;20087;-63
2023/05/21 06:26:07;;;;;;;1.50;1.40;;;;;;;21.54;46.53;100619.13;4552283;28;20143;-63
2023/05/21 06:28:18;;;;;;;1.60;1.50;;;;;;;21.60;47.18;100623.38;4552818;28;20063;-63
2023/05/21 06:30:28;;;;;;;1.50;1.40;;;;;;;21.59;47.25;100621.72;4542579;28;20068;-63
2023/05/21 06:32:39;;;;;;;2.20;1.40;;;;;;;21.58;47.21;100614.28;4536120;28;20041;-63
2023/05/21 06:34:49;;;;;;;1.95;1.75;;;;;;;21.61;47.05;100627.91;4539695;28;20447;-63
2023/05/21 06:37:01;;;;;;;2.15;1.60;;;;;;;21.58;46.85;100620.03;4550540;28;20049;-63
2023/05/21 06:39:12;;;;;;;2.13;1.80;;;;;;;21.56;47.00;100616.72;4552800;28;20126;-63
2023/05/21 06:41:23;;;;;;;1.70;1.60;;;;;;;21.60;46.64;100622.53;4551330;28;20098;-63
2023/05/21 06:43:39;;;;;;;;;;;;;;;21.61;47.23;100625.03;4536716;28;20132;-63
2023/05/21 06:46:08;;;;;;;2.75;1.95;;;;;;;21.58;47.26;100617.16;4554918;28;19920;-63
2023/05/21 06:48:22;;;;;;;1.83;1.70;;;;;;;21.59;47.38;100630.34;4552857;28;20032;-63
2023/05/21 06:50:34;;;;;;;1.83;1.67;;;;;;;21.61;46.94;100627.09;4552052;28;20029;-63
2023/05/21 06:52:45;;;;;;;1.80;1.70;;;;;;;21.60;47.30;100637.72;4551954;28;20480;-63
2023/05/21 06:54:56;;;;;;;1.90;1.80;;;;;;;21.58;47.34;100630.72;4540932;28;20040;-63
2023/05/21 06:57:09;;;;;;;2.00;1.80;;;;;;;21.53;47.27;100631.81;4551691;28;20874;-63
2023/05/21 06:59:19;;;;;;;2.35;2.00;;;;;;;21.45;47.11;100615.63;4551846;28;20083;-63
2023/05/21 07:01:31;;;;;;;2.03;1.80;;;;;;;21.52;47.57;100621.53;4556513;28;20036;-63
2023/05/21 07:03:41;;;;;;;2.00;1.77;;;;;;;21.58;47.23;100634.38;4552606;28;20059;-63
2023/05/21 07:05:52;;;;;;;1.80;1.70;;;;;;;21.60;47.20;100637.72;4552006;28;20120;-62
2023/05/21 07:08:03;;;;;;;2.30;2.10;;;;;;;21.56;47.15;100622.47;4551516;28;20560;-63
2023/05/21 07:10:13;;;;;;;2.90;2.00;;;;;;;21.54;47.80;100624.88;4553710;28;20783;-63
2023/05/21 07:12:24;;;;;;;2.03;1.83;;;;;;;21.57;48.03;100632.75;4552452;28;20350;-63
2023/05/21 07:14:35;;;;;;;2.25;1.88;;;;;;;21.60;47.82;100634.00;4551873;28;20060;-63
2023/05/21 07:16:45;;;;;;;2.45;1.90;;;;;;;21.60;48.17;100631.16;4551935;28;20609;-63
2023/05/21 07:18:56;;;;;;;2.67;2.40;;;;;;;21.61;47.69;100638.56;4552330;28;20301;-63
2023/05/21 07:21:07;;;;;;;3.00;2.70;;;;;;;21.59;48.29;100641.81;4536580;28;20467;-63
2023/05/21 07:23:20;;;;;;;2.70;2.50;;;;;;;21.58;48.59;100637.25;4552690;28;20040;-63
2023/05/21 07:25:30;;;;;;;3.05;2.78;;;;;;;21.60;48.30;100634.88;4551125;28;20036;-63
2023/05/21 07:27:41;;;;;;;3.08;2.78;;;;;;;21.54;47.75;100624.03;4553150;27;20424;-63
2023/05/21 07:29:52;;;;;;;2.60;2.40;;;;;;;21.58;48.06;100627.84;4552950;28;20678;-63
2023/05/21 07:32:04;;;;;;;3.60;2.80;;;;;;;21.47;48.30;100610.31;4554081;28;20059;-63
2023/05/21 07:34:14;;;;;;;2.80;2.60;;;;;;;21.60;48.74;100623.38;4541308;28;20582;-64
2023/05/21 07:36:26;;;;;;;2.97;2.67;;;;;;;21.60;48.39;100629.13;4554297;28;20518;-63
2023/05/21 07:38:37;;;;;;;2.60;2.40;;;;;;;21.59;49.11;100630.34;4553830;28;20493;-63
2023/05/21 07:40:48;;;;;;;2.88;2.63;;;;;;;21.62;49.00;100631.63;4553879;28;20040;-63
2023/05/21 07:42:59;;;;;;;3.10;2.80;;;;;;;21.62;48.60;100635.34;4541177;28;20469;-63
2023/05/21 07:45:12;;;;;;;2.60;2.40;;;;;;;21.56;48.97;100624.50;4553219;28;20102;-63
2023/05/21 07:47:27;;;;;;;2.85;2.65;;;;;;;21.60;49.03;100626.25;4555280;28;20033;-63
2023/05/21 07:49:37;;;;;;;2.97;2.67;;;;;;;21.61;49.18;100621.34;4555819;28;20032;-63
2023/05/21 07:51:48;;;;;;;2.88;2.65;;;;;;;21.58;48.93;100617.16;4555660;28;20091;-63
2023/05/21 07:53:59;;;;;;;2.67;2.47;;;;;;;21.59;48.75;100613.09;4562470;28;20618;-63
2023/05/21 07:56:15;;;;;;;3.33;3.03;;;;;;;21.58;49.45;100617.16;4557308;28;21216;-63
2023/05/21 07:58:26;;;;;;;3.17;2.88;;;;;;;21.61;49.23;100615.59;4557615;28;20048;-63
2023/05/21 08:00:45;;;;;;;3.35;2.72;;;;;;;21.60;49.36;100626.25;4556639;28;20029;-63
2023/05/21 08:02:56;;;;;;;3.45;3.15;;;;;;;21.55;49.33;100615.03;4544661;28;20032;-63
2023/05/21 08:05:09;;;;;;;3.05;2.75;;;;;;;21.58;49.44;100617.16;4556893;28;20068;-64
2023/05/21 08:07:20;;;;;;;3.38;3.08;;;;;;;21.61;49.17;100625.03;4556697;28;20559;-63
2023/05/21 08:09:31;;;;;;;3.33;3.00;;;;;;;21.58;49.58;100622.91;4556217;28;20144;-63
2023/05/21 08:11:42;;;;;;;3.75;2.90;;;;;;;21.62;49.67;100629.59;4556184;28;20155;-64
2023/05/21 08:13:52;;;;;;;3.28;2.85;;;;;;;21.58;49.90;100617.16;4555709;28;20590;-63
2023/05/21 08:16:04;;;;;;;2.90;2.70;;;;;;;21.62;50.47;100629.59;4543605;28;20556;-63
2023/05/21 08:18:16;;;;;;;3.00;2.80;;;;;;;21.59;49.89;100624.59;4556802;28;20067;-63
2023/05/21 08:20:29;;;;;;;3.65;2.90;;;;;;;21.61;49.98;100621.34;4556941;28;20624;-63
2023/05/21 08:22:40;;;;;;;3.05;2.75;;;;;;;21.56;50.19;100608.09;4556224;28;20033;-63
2023/05/21 08:24:51;;;;;;;3.42;3.08;;;;;;;21.61;50.61;100612.72;4556768;28;20127;-63
2023/05/21 08:27:02;;;;;;;2.95;2.67;;;;;;;21.61;49.90;100627.91;4572318;27;20923;-63
2023/05/21 08:29:14;;;;;;;3.35;3.05;;;;;;;21.60;50.37;100623.38;4556747;28;20953;-63
2023/05/21 08:31:25;;;;;;;3.10;2.80;;;;;;;21.61;50.25;100619.28;4557428;28;20119;-63
2023/05/21 08:33:38;;;;;;;3.30;3.00;;;;;;;21.56;50.45;100604.38;4554293;28;20086;-63
2023/05/21 08:35:49;;;;;;;3.50;3.17;;;;;;;21.53;50.29;100603.09;4555261;28;20495;-63
2023/05/21 08:38:10;;;;;;;3.25;2.95;;;;;;;21.60;51.30;100614.75;4556198;28;20024;-63
2023/05/21 08:40:29;;;;;;;3.15;2.85;;;;;;;21.62;51.51;100618.09;4553880;28;20962;-63
2023/05/21 08:42:46;;;;;;;3.55;3.25;;;;;;;21.62;51.72;100615.22;4555944;28;20044;-62
2023/05/21 08:45:08;;;;;;;3.38;3.08;;;;;;;21.63;52.04;100622.63;4555998;28;20133;-62
2023/05/21 08:47:23;;;;;;;3.55;3.20;;;;;;;21.63;51.61;100613.16;4556251;28;20086;-62
2023/05/21 08:49:34;;;;;;;3.50;3.20;;;;;;;21.61;51.14;100621.34;4559415;28;20082;-62
2023/05/21 08:51:46;;;;;;;4.20;3.17;;;;;;;21.58;51.54;100602.81;4557330;28;20032;-61
2023/05/21 08:53:58;;;;;;;3.53;3.20;;;;;;;21.51;51.63;100598.94;4553830;28;20084;-63
2023/05/21 08:56:11;;;;;;;3.75;3.42;;;;;;;21.63;51.07;100619.75;4555631;28;20641;-63
2023/05/21 08:58:32;;;;;;;3.22;2.92;;;;;;;21.63;51.34;100607.41;4542522;28;20033;-63
2023/05/21 09:00:43;;;;;;;3.50;3.20;;;;;;;21.62;52.94;100606.59;4554392;28;20040;-64
2023/05/21 09:02:55;;;;;;;3.20;2.90;;;;;;;21.62;52.37;100615.22;4554136;28;20039;-63
2023/05/21 09:05:08;;;;;;;3.78;3.33;;;;;;;21.64;51.84;100620.59;4543215;28;20039;-63
2023/05/21 09:07:19;;;;;;;3.60;3.25;;;;;;;21.63;51.80;100607.41;4556454;28;20043;-64
2023/05/21 09:10:01;;;;;;;3.63;3.33;;;;;;;21.64;51.83;100615.69;4550221;28;20048;-63
2023/05/21 09:12:12;;;;;;;3.55;3.25;;;;;;;21.61;52.55;100615.59;4556587;28;20131;-63
2023/05/21 09:14:23;;;;;;;3.60;3.30;;;;;;;21.61;51.95;100609.84;4554916;28;20029;-63
2023/05/21 09:16:47;;;;;;;3.60;3.30;;;;;;;21.64;52.22;100618.56;4555627;28;20040;-63
2023/05/21 09:18:58;;;;;;;3.47;3.17;;;;;;;21.64;52.46;100609.94;4539184;28;20076;-63
2023/05/21 09:21:28;;;;;;;3.47;3.17;;;;;;;21.48;52.28;100580.41;4553895;28;20074;-63
2023/05/21 09:23:43;;;;;;;3.90;3.50;;;;;;;21.62;52.32;100600.84;4555470;28;20564;-63
2023/05/21 09:25:54;;;;;;;4.10;3.70;;;;;;;21.65;51.87;100605.00;4542273;28;20136;-64
2023/05/21 09:28:12;;;;;;;3.65;3.35;;;;;;;21.65;52.30;100602.13;4560407;28;20024;-65
2023/05/21 09:30:24;;;;;;;4.35;3.80;;;;;;;21.62;52.46;100591.41;4556040;27;20139;-64
2023/05/21 09:32:35;;;;;;;4.00;3.60;;;;;;;21.65;52.20;100594.38;4553324;28;20114;-63
2023/05/21 09:34:46;;;;;;;3.88;3.53;;;;;;;21.62;52.79;100589.38;4544008;28;20064;-63
2023/05/21 09:37:00;;;;;;;3.75;3.38;;;;;;;21.62;53.36;100600.84;4554899;27;20136;-62
2023/05/21 09:39:27;;;;;;;3.63;3.33;;;;;;;21.62;53.11;100600.84;4554506;28;20041;-63
2023/05/21 09:41:41;;;;;;;3.95;3.55;;;;;;;21.63;53.50;100593.06;4536089;28;20033;-63
2023/05/21 09:43:58;;;;;;;3.70;3.40;;;;;;;21.63;53.37;100585.28;4561188;28;20040;-64
2023/05/21 09:46:09;;;;;;;4.00;3.60;;;;;;;21.67;54.12;100596.88;4543938;28;20718;-65
2023/05/21 09:48:37;;;;;;;4.05;3.65;;;;;;;21.67;53.42;100596.88;4558524;28;20047;-63
2023/05/21 09:50:49;;;;;;;3.90;3.50;;;;;;;21.63;52.98;100595.94;4553769;28;20040;-63
2023/05/21 09:53:00;;;;;;;3.90;3.60;;;;;;;21.65;52.80;100591.50;4553832;28;20040;-63
2023/05/21 09:55:12;;;;;;;3.88;3.50;;;;;;;21.69;52.33;100601.00;4556225;28;20095;-63
2023/05/21 09:57:24;;;;;;;3.83;3.42;;;;;;;21.66;53.31;100590.28;4554856;28;20078;-63
2023/05/21 09:59:38;;;;;;;3.60;3.30;;;;;;;21.68;54.19;100593.63;4554615;28;20037;-62
2023/05/21 10:01:50;;;;;;;3.75;3.45;;;;;;;21.71;54.23;100592.00;4555825;28;20646;-63
2023/05/21 10:04:05;;;;;;;5.30;3.65;;;;;;;21.71;53.77;100584.25;4555789;28;20071;-63
2023/05/21 10:06:18;;;;;;;4.25;3.85;;;;;;;21.71;54.35;100587.13;4555392;28;20047;-62
2023/05/21 10:08:34;;;;;;;4.53;4.03;;;;;;;21.64;54.43;100569.72;4555803;28;20047;-62
2023/05/21 10:10:47;;;;;;;4.68;3.75;;;;;;;21.72;53.56;100573.59;4554588;27;20036;-64
2023/05/21 10:13:08;;;;;;;3.83;3.42;;;;;;;21.68;54.64;100573.50;4537609;28;20618;-64
2023/05/21 10:15:22;;;;;;;4.18;3.75;;;;;;;21.72;54.97;100564.97;4553428;28;20036;-62